Plush, Oregon
Current Conditions -  °F | °C
As of 4:55 PM on Friday 24 Oct 2014 (Local Time) from KLKV Reporting Station
Clear Clear  
Wind Chill: 63°   Ceiling: Unl
Heat Index: 63°   Visibility: 10mi
Dew Point: 36°   Wind: 13mph
Humidity: 37%   Direction: 200°SSW
Pressure: 29.94"   Gusts: NA
Location:  42.41°N, 119.91°W
Report Text: KLKV 242355Z AUTO 20011KT 10SM CLR 17/02 A2994 RMK AO1 10200 20130 402000060 57017
Loading
Personal Weather Stations






























Interactive Weather Map
Tropical Storm Tracking
New forecast layout! Learn more

10-Day Weather Forecast

Advertisements
Track Severe Weather on mobile